Time;durP1;ratioP1;P1;durP2;ratioP2;P2;SDS_P1;SDS_P2;PMS_P1;PMS_P2;Temp;Humidity;BMP_temperature;BMP_pressure;BME280_temperature;BME280_humidity;BME280_pressure;Samples;Min_cycle;Max_cycle;Signal;HPM_P1;HPM_P2
2023/01/05 00:01:55;;;;;;;24.80;14.70;;;;;;;1.85;96.40;101293.41;105323;1272;72233;-68
2023/01/05 00:04:24;;;;;;;24.30;14.30;;;;;;;1.89;96.60;101287.66;105382;1276;70208;-68
2023/01/05 00:06:53;;;;;;;24.80;14.10;;;;;;;1.93;97.06;101281.34;105366;1269;71199;-69
2023/01/05 00:09:22;;;;;;;26.00;15.00;;;;;;;1.94;97.15;101275.15;105332;1276;63138;-71
2023/01/05 00:23:08;;;;;;;25.90;15.30;;;;;;;1.75;96.30;101262.76;105332;1273;62734;-71
2023/01/05 00:25:40;;;;;;;25.50;14.10;;;;;;;1.72;97.50;101262.86;105373;1267;59150;-70
2023/01/05 00:28:09;;;;;;;25.20;13.40;;;;;;;1.69;97.30;101260.52;105372;1269;59060;-69
2023/01/05 00:30:46;;;;;;;23.40;13.70;;;;;;;1.70;97.67;101255.20;105257;1276;71502;-71
2023/01/05 00:33:16;;;;;;;29.60;13.90;;;;;;;1.71;97.57;101251.21;105244;1268;71417;-70
2023/01/05 00:35:45;;;;;;;24.20;14.30;;;;;;;1.78;98.58;101247.74;105332;1272;68514;-72
2023/01/05 00:38:14;;;;;;;26.90;14.70;;;;;;;1.80;97.33;101244.41;105229;1269;62744;-71
2023/01/05 00:40:43;;;;;;;19.10;10.70;;;;;;;1.91;96.79;101237.42;105226;1272;58961;-70
2023/01/05 00:43:12;;;;;;;23.90;13.90;;;;;;;1.99;96.01;101230.00;105364;1275;58255;-71
2023/01/05 00:45:41;;;;;;;23.40;14.00;;;;;;;2.05;95.82;101227.58;105251;1277;62192;-70
2023/01/05 00:48:10;;;;;;;24.20;14.00;;;;;;;2.05;95.07;101227.41;105278;1269;60987;-72
2023/01/05 00:50:39;;;;;;;20.50;12.20;;;;;;;2.04;94.58;101223.49;105309;1272;59171;-72
2023/01/05 00:53:08;;;;;;;20.20;12.60;;;;;;;2.08;94.67;101220.27;105330;1276;62607;-70
2023/01/05 00:55:37;;;;;;;22.30;12.60;;;;;;;2.12;94.75;101212.43;105243;1269;61397;-69
2023/01/05 00:58:08;;;;;;;24.70;13.40;;;;;;;2.18;94.68;101198.68;105385;1275;60584;-70
2023/01/05 01:00:38;;;;;;;23.70;13.10;;;;;;;2.16;94.18;101191.71;105348;1263;74073;-69
2023/01/05 01:03:15;;;;;;;23.20;13.00;;;;;;;2.14;94.23;101184.20;105285;1264;72347;-74
2023/01/05 01:05:44;;;;;;;20.80;13.80;;;;;;;2.10;93.99;101185.69;105256;1263;59881;-68
2023/01/05 01:08:13;;;;;;;22.70;13.00;;;;;;;2.05;93.79;101193.21;105350;1277;62805;-69
2023/01/05 01:10:42;;;;;;;21.90;12.00;;;;;;;2.01;93.78;101191.46;105247;1268;61072;-68
2023/01/05 01:13:11;;;;;;;20.80;12.20;;;;;;;2.00;93.73;101187.38;105283;1266;61334;-68
2023/01/05 01:15:40;;;;;;;22.50;12.90;;;;;;;1.98;93.83;101188.96;105363;1275;72369;-68
2023/01/05 01:18:10;;;;;;;22.20;11.20;;;;;;;1.96;94.10;101176.48;105271;1268;71839;-69
2023/01/05 01:20:39;;;;;;;22.40;12.00;;;;;;;1.98;93.98;101172.13;105307;1268;69337;-70
2023/01/05 01:23:08;;;;;;;20.60;12.10;;;;;;;1.97;93.62;101160.83;105248;1269;73423;-68
2023/01/05 01:25:38;;;;;;;18.70;11.50;;;;;;;1.95;93.53;101157.63;105248;1269;61938;-67
2023/01/05 01:28:06;;;;;;;20.50;12.40;;;;;;;1.94;93.60;101149.73;105280;1269;61538;-68
2023/01/05 01:30:38;;;;;;;19.50;12.50;;;;;;;1.93;94.36;101140.48;105322;1275;72429;-68
2023/01/05 01:33:07;;;;;;;21.70;12.20;;;;;;;1.97;94.89;101133.31;105260;1272;61906;-69
2023/01/05 01:35:37;;;;;;;22.30;12.00;;;;;;;2.05;95.02;101125.69;105306;1270;68555;-70
2023/01/05 01:38:06;;;;;;;19.60;11.10;;;;;;;2.08;94.28;101118.21;105230;1275;73581;-71
2023/01/05 01:40:41;;;;;;;22.00;12.40;;;;;;;2.09;93.79;101107.02;105231;1272;61280;-70
2023/01/05 01:43:16;;;;;;;21.10;12.20;;;;;;;2.18;94.30;101098.14;105264;1270;62466;-72
2023/01/05 01:45:45;;;;;;;22.70;12.60;;;;;;;2.24;93.66;101095.03;105373;1275;74400;-71
2023/01/05 01:48:17;;;;;;;19.60;10.90;;;;;;;2.31;93.66;101093.78;105121;1277;61570;-71
2023/01/05 01:50:51;;;;;;;21.10;11.50;;;;;;;2.50;91.83;101094.02;105247;1269;59536;-70
2023/01/05 01:53:34;;;;;;;22.10;11.80;;;;;;;2.80;89.57;101080.64;105339;1263;62538;-70
2023/01/05 01:56:07;;;;;;;22.20;13.00;;;;;;;2.91;89.11;101078.54;105354;1269;59988;-72
2023/01/05 01:58:36;;;;;;;;;;;;;;;2.93;89.41;101072.26;105364;1269;58491;-70
2023/01/05 02:01:05;;;;;;;18.90;10.60;;;;;;;2.95;89.31;101072.38;105377;1272;62140;-72
2023/01/05 02:03:35;;;;;;;14.80;9.40;;;;;;;3.02;88.66;101069.04;105416;1269;71253;-69
2023/01/05 02:06:06;;;;;;;18.20;10.90;;;;;;;3.07;88.80;101069.36;105304;1270;71174;-69
2023/01/05 02:08:35;;;;;;;18.60;11.90;;;;;;;3.09;88.93;101064.48;105394;1263;73373;-68
2023/01/05 02:11:34;;;;;;;22.10;13.00;;;;;;;3.13;88.17;101062.29;105415;1269;61725;-70
2023/01/05 02:14:21;;;;;;;20.80;12.20;;;;;;;3.14;87.85;101046.93;105284;1269;58518;-72
2023/01/05 02:17:19;;;;;;;18.80;10.90;;;;;;;3.12;88.16;101047.68;105420;1275;62143;-69
2023/01/05 02:20:29;;;;;;;16.40;9.90;;;;;;;3.12;88.10;101046.81;105293;1263;61076;-68
2023/01/05 02:23:47;;;;;;;18.50;11.00;;;;;;;3.14;87.95;101034.89;105191;1266;68608;-70
2023/01/05 02:26:59;;;;;;;19.60;11.40;;;;;;;3.13;87.28;101019.75;105262;1277;72689;-69
2023/01/05 02:30:07;;;;;;;18.90;12.10;;;;;;;3.17;87.45;101012.73;105391;1265;61619;-69
2023/01/05 02:32:59;;;;;;;19.60;11.40;;;;;;;3.16;87.34;101011.56;105079;1269;60791;-68
2023/01/05 02:35:37;;;;;;;16.60;11.60;;;;;;;3.15;87.39;101009.19;105190;1277;72982;-69
2023/01/05 02:38:51;;;;;;;18.30;11.10;;;;;;;3.14;87.89;101000.28;105158;1266;71927;-69
2023/01/05 02:41:32;;;;;;;20.10;12.90;;;;;;;3.14;88.61;100991.33;105226;1276;59237;-68
2023/01/05 02:44:03;;;;;;;21.90;12.00;;;;;;;3.16;88.41;100982.64;105218;1269;73053;-69
2023/01/05 02:46:32;;;;;;;20.60;12.00;;;;;;;3.15;87.85;100978.23;105153;1266;59069;-69
2023/01/05 02:49:04;;;;;;;24.10;12.80;;;;;;;3.12;87.65;100972.14;105457;1267;61565;-69
2023/01/05 02:51:45;;;;;;;19.20;12.00;;;;;;;3.11;87.76;100966.99;105388;1271;72764;-69
2023/01/05 02:54:28;;;;;;;19.20;12.20;;;;;;;3.11;87.70;100962.88;105363;1267;70849;-69
2023/01/05 02:57:20;;;;;;;19.60;12.40;;;;;;;3.08;87.45;100956.12;105353;1263;60499;-68
2023/01/05 02:59:53;;;;;;;19.20;11.50;;;;;;;3.08;87.03;100946.98;105236;1276;73795;-69
2023/01/05 03:02:29;;;;;;;17.30;10.90;;;;;;;3.19;86.95;100934.17;105298;1276;62122;-68
2023/01/05 03:05:07;;;;;;;17.20;11.40;;;;;;;3.26;85.52;100939.40;105234;1263;61482;-68
2023/01/05 03:07:42;;;;;;;18.40;10.30;;;;;;;3.41;84.34;100935.20;105228;1275;71480;-66
2023/01/05 03:16:00;;;;;;;18.70;10.60;;;;;;;3.58;83.46;100924.56;105344;1269;74167;-66
2023/01/05 03:18:31;;;;;;;16.50;10.80;;;;;;;3.60;82.59;100918.95;105179;1273;58927;-69
2023/01/05 03:21:00;;;;;;;18.20;11.10;;;;;;;3.68;82.32;100918.12;105246;1275;60355;-69
2023/01/05 03:38:30;;;;;;;16.50;10.80;;;;;;;3.78;81.70;100919.44;105284;1272;62045;-72
2023/01/05 03:41:07;;;;;;;15.60;9.80;;;;;;;3.87;80.47;100914.08;105351;1269;63821;-69
2023/01/05 03:43:38;;;;;;;16.90;9.60;;;;;;;3.95;80.13;100912.02;105218;1274;61391;-69
2023/01/05 03:46:16;;;;;;;14.60;9.70;;;;;;;4.04;79.43;100903.91;104961;1263;386442;-70
2023/01/05 03:48:46;;;;;;;16.80;9.30;;;;;;;4.17;78.34;100890.23;105251;1275;63733;-69
2023/01/05 03:51:16;;;;;;;16.40;10.90;;;;;;;4.28;77.62;100882.03;105224;1272;59351;-70
2023/01/05 03:53:46;;;;;;;19.90;11.30;;;;;;;4.29;77.87;100885.92;105329;1269;59083;-71
2023/01/05 03:56:15;;;;;;;19.10;10.50;;;;;;;4.25;78.39;100884.39;105284;1268;73819;-71
2023/01/05 03:58:45;;;;;;;20.00;12.10;;;;;;;4.17;78.35;100881.98;105358;1272;72462;-71
2023/01/05 04:01:14;;;;;;;17.20;11.10;;;;;;;4.16;78.31;100878.76;105330;1267;59915;-70
2023/01/05 04:03:43;;;;;;;15.90;9.70;;;;;;;4.12;78.36;100873.55;105297;1265;64703;-70
2023/01/05 04:06:13;;;;;;;21.60;11.20;;;;;;;4.04;78.36;100865.29;105430;1267;59183;-70
2023/01/05 04:08:42;;;;;;;20.50;11.30;;;;;;;4.05;78.77;100862.48;105406;1277;62291;-73
2023/01/05 04:11:18;;;;;;;19.80;11.50;;;;;;;4.02;78.81;100873.82;105399;1262;72528;-72
2023/01/05 04:13:52;;;;;;;15.70;10.70;;;;;;;3.99;79.03;100860.67;105354;1272;70907;-70
2023/01/05 04:16:22;;;;;;;22.90;11.90;;;;;;;3.98;79.32;100853.30;105415;1275;59288;-70
2023/01/05 04:18:52;;;;;;;19.60;11.50;;;;;;;4.00;79.54;100837.35;105414;1275;62582;-73
2023/01/05 04:21:22;;;;;;;20.20;12.10;;;;;;;3.99;79.07;100847.24;105454;1268;59607;-72
2023/01/05 04:23:52;;;;;;;19.00;10.50;;;;;;;3.96;79.48;100846.33;105429;1269;60275;-69
2023/01/05 04:26:20;;;;;;;17.00;10.20;;;;;;;3.96;79.01;100846.65;105106;1270;73337;-70
2023/01/05 04:28:50;;;;;;;18.10;11.10;;;;;;;4.01;78.74;100840.79;105119;1276;61566;-70
2023/01/05 04:31:21;;;;;;;18.30;11.00;;;;;;;4.01;78.78;100847.81;105152;1272;59183;-70
2023/01/05 04:33:51;;;;;;;18.40;10.30;;;;;;;4.01;79.28;100846.63;105147;1264;73923;-68
2023/01/05 04:36:21;;;;;;;18.00;10.60;;;;;;;3.96;79.76;100845.29;105138;1272;59064;-69
2023/01/05 04:38:50;;;;;;;17.40;10.40;;;;;;;3.94;79.76;100843.13;105083;1277;57556;-70
2023/01/05 04:41:20;;;;;;;17.60;10.80;;;;;;;3.93;80.13;100841.44;105409;1268;62925;-70
2023/01/05 04:43:51;;;;;;;20.70;11.30;;;;;;;3.90;80.20;100837.09;105373;1263;71600;-73
2023/01/05 04:46:20;;;;;;;18.90;10.40;;;;;;;3.89;80.41;100824.77;105319;1272;59334;-70
2023/01/05 04:48:50;;;;;;;23.20;13.10;;;;;;;3.85;80.91;100817.83;105344;1268;62755;-74
2023/01/05 04:51:20;;;;;;;22.30;11.60;;;;;;;3.86;81.43;100828.52;105236;1269;59883;-71
2023/01/05 04:53:50;;;;;;;29.60;13.70;;;;;;;3.85;80.78;100828.73;105349;1272;61134;-71
2023/01/05 04:56:19;;;;;;;24.40;12.90;;;;;;;3.72;80.75;100827.17;105353;1263;62026;-72
2023/01/05 04:58:49;;;;;;;29.90;13.10;;;;;;;3.71;81.17;100824.98;105292;1263;71352;-73
2023/01/05 05:01:19;;;;;;;28.00;14.40;;;;;;;3.63;81.24;100810.37;105235;1273;69189;-72
2023/01/05 05:03:52;;;;;;;26.50;14.70;;;;;;;3.57;82.00;100813.71;105363;1276;62547;-70
2023/01/05 05:06:21;;;;;;;31.60;18.50;;;;;;;3.46;83.35;100799.85;105389;1268;59127;-70
2023/01/05 05:08:51;;;;;;;25.80;16.30;;;;;;;3.38;84.83;100792.24;105421;1269;60806;-71
2023/01/05 05:11:20;;;;;;;27.70;16.60;;;;;;;3.30;84.97;100779.69;105278;1263;73325;-70
2023/01/05 05:13:49;;;;;;;26.30;16.30;;;;;;;3.05;86.34;100773.82;105377;1267;61298;-69
2023/01/05 05:16:18;;;;;;;28.90;18.00;;;;;;;3.02;87.41;100772.20;105198;1272;59375;-71
2023/01/05 05:18:48;;;;;;;29.40;17.10;;;;;;;2.94;87.50;100767.19;105307;1267;73253;-71
2023/01/05 05:21:21;;;;;;;28.40;17.80;;;;;;;2.96;88.07;100761.60;105240;1275;60579;-72
2023/01/05 05:23:50;;;;;;;28.90;15.00;;;;;;;2.90;88.24;100753.63;105303;1274;60498;-70
2023/01/05 05:26:19;;;;;;;29.30;17.10;;;;;;;2.89;88.99;100743.84;105271;1271;63016;-71
2023/01/05 05:28:48;;;;;;;28.20;16.10;;;;;;;2.92;89.18;100741.80;105277;1260;61776;-70
2023/01/05 05:31:17;;;;;;;25.40;15.10;;;;;;;2.97;89.25;100741.12;105363;1265;59309;-70
2023/01/05 05:33:46;;;;;;;25.40;14.50;;;;;;;3.03;89.35;100733.31;105352;1269;62736;-70
2023/01/05 05:36:16;;;;;;;23.80;14.00;;;;;;;3.03;88.86;100719.02;105257;1269;60610;-71
2023/01/05 05:38:45;;;;;;;21.80;12.70;;;;;;;3.08;88.89;100711.39;105272;1272;60408;-70
2023/01/05 05:41:14;;;;;;;21.00;13.30;;;;;;;3.06;87.40;100710.28;105302;1269;74274;-70
2023/01/05 05:43:43;;;;;;;23.40;14.00;;;;;;;3.07;88.02;100704.05;105206;1261;72164;-70
2023/01/05 05:46:12;;;;;;;20.10;11.40;;;;;;;3.05;87.40;100702.38;105457;1275;70573;-72
2023/01/05 05:48:41;;;;;;;21.50;12.40;;;;;;;3.08;86.24;100702.82;105483;1269;73417;-70
2023/01/05 05:51:10;;;;;;;18.90;10.50;;;;;;;3.08;85.54;100696.61;105385;1274;59103;-74
2023/01/05 05:53:39;;;;;;;21.70;12.40;;;;;;;3.10;86.01;100692.91;105236;1275;62088;-71
2023/01/05 05:56:08;;;;;;;22.00;12.30;;;;;;;3.10;86.64;100690.15;105299;1269;62508;-70
2023/01/05 05:58:37;;;;;;;16.90;10.60;;;;;;;3.11;86.44;100687.52;105210;1271;61046;-70
2023/01/05 06:01:06;;;;;;;19.00;11.00;;;;;;;3.13;85.58;100686.23;105281;1266;68895;-70
2023/01/05 06:03:36;;;;;;;17.30;11.20;;;;;;;3.20;84.34;100690.10;105195;1269;71420;-71
2023/01/05 06:06:05;;;;;;;17.70;11.10;;;;;;;3.24;83.79;100689.39;105319;1268;59555;-71
2023/01/05 06:08:34;;;;;;;17.50;10.90;;;;;;;3.28;83.54;100683.20;105297;1273;59192;-74
2023/01/05 06:11:04;;;;;;;20.30;11.70;;;;;;;3.33;83.61;100681.61;105261;1264;73906;-73
2023/01/05 06:13:33;;;;;;;19.70;12.10;;;;;;;3.34;83.60;100681.23;105326;1265;63003;-72
2023/01/05 06:16:02;;;;;;;20.40;11.40;;;;;;;3.37;84.82;100681.45;105272;1269;68611;-73
2023/01/05 06:18:32;;;;;;;17.50;10.60;;;;;;;3.38;84.17;100678.29;105197;1268;63080;-73
2023/01/05 06:21:01;;;;;;;18.20;10.00;;;;;;;3.39;83.81;100666.02;105315;1268;59103;-72
2023/01/05 06:23:30;;;;;;;17.80;9.70;;;;;;;3.41;83.70;100671.80;105454;1269;59039;-70
2023/01/05 06:26:00;;;;;;;16.20;10.40;;;;;;;3.45;84.43;100664.23;105377;1272;72641;-73
2023/01/05 06:28:29;;;;;;;18.40;10.60;;;;;;;3.48;84.21;100662.73;105355;1269;70913;-71
2023/01/05 06:30:58;;;;;;;18.70;11.60;;;;;;;3.54;84.28;100659.20;105433;1264;70351;-73
2023/01/05 06:33:27;;;;;;;19.60;11.50;;;;;;;3.58;82.55;100650.07;105192;1271;73335;-72
2023/01/05 06:35:57;;;;;;;23.30;13.10;;;;;;;3.59;82.17;100649.15;105319;1265;59070;-71
2023/01/05 06:38:26;;;;;;;23.50;12.90;;;;;;;3.63;82.37;100644.85;105234;1277;57633;-72
2023/01/05 06:40:56;;;;;;;24.90;13.10;;;;;;;3.66;82.56;100643.34;105347;1269;73487;-70
2023/01/05 06:43:25;;;;;;;19.90;11.20;;;;;;;3.70;82.03;100639.01;105262;1270;74194;-71
2023/01/05 06:45:54;;;;;;;15.60;9.80;;;;;;;3.78;81.72;100634.52;105264;1277;69526;-70
2023/01/05 06:48:24;;;;;;;15.90;9.50;;;;;;;3.94;78.70;100638.77;105625;1269;72245;-73
2023/01/05 06:50:53;;;;;;;19.40;10.20;;;;;;;4.11;79.25;100638.02;105179;1265;61440;-72
2023/01/05 06:53:23;;;;;;;14.30;7.90;;;;;;;4.20;77.76;100628.42;105338;1272;59176;-72
2023/01/05 06:55:51;;;;;;;21.40;9.90;;;;;;;4.30;77.15;100626.95;105131;1273;73570;-73
2023/01/05 06:58:21;;;;;;;16.30;10.20;;;;;;;4.43;76.20;100619.54;105202;1269;72022;-71
2023/01/05 07:00:49;;;;;;;16.60;9.60;;;;;;;4.47;76.58;100612.28;105271;1272;70968;-72
2023/01/05 07:03:19;;;;;;;15.70;9.80;;;;;;;4.47;77.86;100603.73;105275;1269;73275;-71
2023/01/05 07:05:48;;;;;;;15.80;9.60;;;;;;;4.53;76.87;100618.20;105182;1270;59462;-71
2023/01/05 07:08:18;;;;;;;22.80;12.60;;;;;;;4.56;77.10;100619.84;105725;1268;59614;-75
2023/01/05 07:10:47;;;;;;;23.60;10.70;;;;;;;4.58;77.54;100614.18;105534;1270;62158;-73
2023/01/05 07:13:16;;;;;;;23.50;10.60;;;;;;;4.62;77.13;100608.98;105510;1275;61487;-71
2023/01/05 07:15:45;;;;;;;16.80;10.30;;;;;;;4.64;77.34;100598.02;105301;1265;69528;-70
2023/01/05 07:18:14;;;;;;;16.70;9.60;;;;;;;4.64;75.62;100603.37;105406;1272;63951;-72
2023/01/05 07:20:43;;;;;;;16.20;11.00;;;;;;;4.68;76.33;100607.67;105386;1269;59686;-73
2023/01/05 07:23:11;;;;;;;17.60;10.70;;;;;;;4.71;76.80;100615.80;105341;1269;61523;-74
2023/01/05 07:25:40;;;;;;;18.50;12.00;;;;;;;4.70;76.73;100615.17;105402;1268;64286;-72
2023/01/05 07:28:09;;;;;;;15.80;9.80;;;;;;;4.69;77.18;100622.80;105036;1267;60910;-76
2023/01/05 07:30:38;;;;;;;18.80;11.30;;;;;;;4.73;76.76;100623.95;105349;1272;59945;-78
2023/01/05 07:33:09;;;;;;;23.90;13.60;;;;;;;4.82;77.05;100623.03;105185;1267;62408;-75
2023/01/05 07:35:38;;;;;;;23.80;13.80;;;;;;;4.89;76.51;100621.63;105251;1269;61184;-74
2023/01/05 07:38:07;;;;;;;16.00;10.50;;;;;;;4.97;77.36;100612.77;105350;1264;60165;-72
2023/01/05 07:40:36;;;;;;;16.50;11.10;;;;;;;5.05;76.83;100613.92;105203;1265;73430;-75
2023/01/05 07:43:05;;;;;;;17.50;10.30;;;;;;;5.12;76.08;100616.16;105023;1269;73091;-74
2023/01/05 07:45:34;;;;;;;20.10;10.30;;;;;;;5.15;75.69;100618.23;105048;1269;70378;-77
2023/01/05 07:48:03;;;;;;;24.70;11.30;;;;;;;5.21;75.66;100619.48;105036;1277;74135;-71
2023/01/05 07:50:32;;;;;;;34.00;13.30;;;;;;;5.25;75.42;100616.52;105090;1268;59072;-71
2023/01/05 07:53:01;;;;;;;24.20;11.60;;;;;;;5.30;76.05;100615.55;105155;1276;58904;-80
2023/01/05 07:55:30;;;;;;;20.60;11.00;;;;;;;5.28;75.51;100617.38;104987;1275;71724;-69
2023/01/05 07:57:59;;;;;;;29.90;12.00;;;;;;;5.27;75.58;100622.30;105121;1268;60951;-73
2023/01/05 08:00:29;;;;;;;25.50;12.60;;;;;;;5.23;75.64;100625.08;105065;1269;59793;-74
2023/01/05 08:02:58;;;;;;;25.20;12.90;;;;;;;5.24;76.13;100617.92;104990;1265;63560;-68
2023/01/05 08:05:32;;;;;;;20.50;12.30;;;;;;;5.26;76.06;100612.15;105009;1264;59010;-69
2023/01/05 08:08:01;;;;;;;19.70;11.60;;;;;;;5.25;77.02;100612.00;105252;1277;59025;-68
2023/01/05 08:10:30;;;;;;;19.30;11.70;;;;;;;5.23;78.43;100606.58;104940;1265;62090;-70
2023/01/05 08:15:59;;;;;;;24.60;12.00;;;;;;;5.16;82.57;100596.23;105367;1267;59142;-70
2023/01/05 08:18:28;;;;;;;23.30;12.40;;;;;;;5.13;83.29;100599.52;105178;1264;62461;-69
2023/01/05 08:21:03;;;;;;;37.20;22.50;;;;;;;5.09;84.38;100604.04;105028;1275;59076;-69
2023/01/05 08:23:32;;;;;;;21.10;11.80;;;;;;;5.06;84.25;100572.09;105102;1262;61162;-71
2023/01/05 08:26:07;;;;;;;23.00;11.60;;;;;;;5.00;86.87;100538.36;105143;1277;72199;-69
2023/01/05 08:28:37;;;;;;;20.30;11.50;;;;;;;5.03;86.24;100565.48;105088;1265;70191;-68
2023/01/05 08:31:15;;;;;;;23.00;11.70;;;;;;;4.95;87.96;100583.71;105124;1272;68455;-70
2023/01/05 08:33:45;;;;;;;21.50;12.10;;;;;;;4.94;87.65;100571.85;105036;1272;72263;-69
2023/01/05 08:36:18;;;;;;;17.00;11.30;;;;;;;4.98;85.85;100569.73;104987;1261;59102;-69
2023/01/05 08:38:50;;;;;;;;;;;;;;;5.04;84.20;100566.16;105233;1277;57409;-69
2023/01/05 08:41:29;;;;;;;20.40;12.30;;;;;;;5.07;85.10;100559.80;105249;1265;73550;-70
2023/01/05 08:44:01;;;;;;;24.00;16.80;;;;;;;5.10;86.29;100558.95;105220;1264;60935;-70
2023/01/05 08:46:34;;;;;;;23.60;13.10;;;;;;;5.14;85.44;100566.99;105144;1270;59313;-70
2023/01/05 08:49:08;;;;;;;23.90;16.40;;;;;;;5.13;88.10;100552.72;104990;1269;73657;-70
2023/01/05 08:51:38;;;;;;;23.00;14.80;;;;;;;5.13;89.58;100552.56;105047;1265;58918;-70
2023/01/05 08:54:07;;;;;;;22.80;13.70;;;;;;;5.13;88.63;100553.92;105327;1265;61230;-70
2023/01/05 08:56:35;;;;;;;18.10;10.10;;;;;;;5.22;87.13;100536.55;105126;1265;73925;-72
2023/01/05 08:59:10;;;;;;;21.10;13.20;;;;;;;5.37;85.86;100526.06;105128;1272;71386;-71
2023/01/05 09:01:39;;;;;;;22.70;12.70;;;;;;;5.48;88.12;100515.45;105055;1267;59559;-72
2023/01/05 09:04:08;;;;;;;20.50;13.90;;;;;;;5.53;87.67;100507.39;105306;1266;63711;-70
2023/01/05 09:06:37;;;;;;;22.90;13.30;;;;;;;5.56;87.47;100506.91;105301;1269;59234;-72
2023/01/05 09:09:06;;;;;;;23.30;13.40;;;;;;;5.59;88.58;100508.65;105277;1268;60380;-72
2023/01/05 09:11:35;;;;;;;24.50;13.90;;;;;;;5.65;85.61;100498.02;105538;1277;64731;-72
2023/01/05 09:14:04;;;;;;;22.10;12.00;;;;;;;5.65;86.13;100482.79;105183;1269;60863;-72
2023/01/05 09:16:34;;;;;;;25.40;13.50;;;;;;;5.70;86.03;100481.59;105138;1275;59393;-71
2023/01/05 09:19:24;;;;;;;20.80;10.20;;;;;;;5.82;85.26;100475.73;105132;1269;73787;-72
2023/01/05 09:21:53;;;;;;;16.20;9.30;;;;;;;5.96;83.57;100472.05;105248;1269;59430;-72
2023/01/05 09:24:23;;;;;;;19.70;10.60;;;;;;;6.04;83.45;100468.11;104879;1275;59128;-71
2023/01/05 09:26:52;;;;;;;16.20;8.50;;;;;;;6.08;82.81;100454.92;105112;1265;62336;-72
2023/01/05 09:29:21;;;;;;;13.20;8.50;;;;;;;6.15;82.85;100452.67;105042;1272;61431;-72
2023/01/05 09:31:51;;;;;;;18.00;9.00;;;;;;;6.19;82.59;100451.06;105427;1266;70844;-72
2023/01/05 09:34:20;;;;;;;14.50;8.60;;;;;;;6.21;83.09;100446.90;105410;1269;74687;-70
2023/01/05 09:36:49;;;;;;;16.50;9.30;;;;;;;6.22;83.33;100436.48;105194;1265;58582;-71
2023/01/05 09:39:18;;;;;;;23.50;10.80;;;;;;;6.24;83.05;100424.79;105173;1269;59087;-73
2023/01/05 09:41:53;;;;;;;16.80;7.20;;;;;;;6.24;83.04;100412.84;105108;1276;73623;-71
2023/01/05 09:44:27;;;;;;;16.40;9.40;;;;;;;6.26;83.22;100411.73;105400;1261;61709;-70
2023/01/05 09:47:11;;;;;;;16.50;9.60;;;;;;;6.27;83.23;100415.61;105318;1269;69134;-71
2023/01/05 09:49:40;;;;;;;16.70;11.10;;;;;;;6.30;83.40;100397.12;105220;1268;63018;-70
2023/01/05 09:52:11;;;;;;;19.90;12.80;;;;;;;6.39;83.58;100385.50;105281;1277;62198;-71
2023/01/05 09:54:40;;;;;;;22.20;11.90;;;;;;;6.43;83.39;100388.03;105170;1272;62209;-70
2023/01/05 09:57:28;;;;;;;15.00;9.30;;;;;;;6.51;83.67;100387.04;105260;1277;73431;-72
2023/01/05 10:00:02;;;;;;;12.10;6.60;;;;;;;6.65;83.00;100395.50;105341;1272;72015;-75
2023/01/05 10:03:10;;;;;;;17.00;7.00;;;;;;;6.84;81.27;100392.30;105221;1267;59548;-71
2023/01/05 10:06:00;;;;;;;14.80;9.60;;;;;;;7.02;80.66;100385.27;105333;1269;62466;-71
2023/01/05 10:08:37;;;;;;;23.50;13.30;;;;;;;7.18;80.65;100385.34;105362;1266;60810;-73
2023/01/05 10:14:38;;;;;;;11.30;6.80;;;;;;;7.33;79.74;100399.61;105599;1276;73196;-73
2023/01/05 10:17:15;;;;;;;;;;;;;;;7.35;79.77;100388.02;105406;1273;61637;-73
2023/01/05 10:26:23;;;;;;;9.30;5.00;;;;;;;7.64;78.22;100352.54;102642;1299;600655;-71
2023/01/05 10:29:10;;;;;;;12.40;6.10;;;;;;;7.71;77.91;100337.14;104381;1288;59042;-70
2023/01/05 10:31:54;;;;;;;17.30;8.20;;;;;;;7.79;76.71;100335.09;105100;1281;57602;-71
2023/01/05 10:34:56;;;;;;;14.10;7.90;;;;;;;7.89;76.69;100330.77;105097;1281;71211;-76
2023/01/05 10:37:59;;;;;;;13.70;6.50;;;;;;;7.95;75.83;100323.04;105345;1272;61966;-72
2023/01/05 10:40:40;;;;;;;16.60;7.70;;;;;;;8.04;75.53;100333.08;104782;1270;309285;-73
2023/01/05 10:43:41;;;;;;;13.30;7.50;;;;;;;8.07;75.84;100342.92;105054;1276;75771;-72
2023/01/05 10:46:12;;;;;;;10.00;6.60;;;;;;;8.13;75.37;100334.68;105345;1263;59106;-73
2023/01/05 10:49:01;;;;;;;13.60;7.40;;;;;;;8.20;74.35;100332.30;105244;1278;57439;-72
2023/01/05 10:51:35;;;;;;;21.80;12.10;;;;;;;8.20;74.93;100344.60;105249;1269;71831;-73
2023/01/05 10:54:05;;;;;;;13.10;5.90;;;;;;;8.29;74.28;100340.04;105196;1270;60814;-71
2023/01/05 10:56:33;;;;;;;10.60;5.20;;;;;;;8.43;73.65;100330.68;105262;1274;69306;-71
2023/01/05 10:59:13;;;;;;;11.00;5.00;;;;;;;8.51;73.78;100323.55;105663;1270;73361;-70
2023/01/05 11:01:48;;;;;;;9.80;4.90;;;;;;;8.64;73.42;100330.48;105509;1271;62809;-71
2023/01/05 11:04:23;;;;;;;11.00;5.70;;;;;;;8.70;73.95;100325.39;105359;1264;61561;-72
2023/01/05 11:07:06;;;;;;;14.10;7.90;;;;;;;8.75;73.87;100316.48;105382;1267;71862;-73
2023/01/05 11:09:39;;;;;;;;;;;;;;;8.79;73.33;100314.67;105360;1268;61266;-71
2023/01/05 11:12:20;;;;;;;13.40;7.10;;;;;;;8.86;74.04;100314.03;105437;1266;59533;-72
2023/01/05 11:14:56;;;;;;;14.60;6.90;;;;;;;8.85;74.55;100309.89;105387;1266;73111;-73
2023/01/05 11:17:28;;;;;;;13.50;7.60;;;;;;;8.92;74.50;100303.02;105303;1268;61639;-71
2023/01/05 11:19:57;;;;;;;14.80;8.50;;;;;;;8.94;74.08;100294.64;105360;1271;61799;-73
2023/01/05 11:22:47;;;;;;;14.30;7.60;;;;;;;8.97;74.01;100293.38;105567;1267;62531;-74
2023/01/05 11:25:22;;;;;;;12.90;7.80;;;;;;;8.99;74.43;100298.85;105318;1267;71339;-72
2023/01/05 11:28:09;;;;;;;14.30;9.40;;;;;;;8.99;74.69;100291.36;105409;1266;69401;-72
2023/01/05 11:31:01;;;;;;;14.90;9.30;;;;;;;8.99;74.17;100280.62;105574;1261;64653;-72
2023/01/05 11:33:34;;;;;;;12.00;8.30;;;;;;;9.02;74.99;100272.20;105214;1277;63078;-74
2023/01/05 11:36:06;;;;;;;12.80;8.10;;;;;;;9.06;74.11;100270.37;105481;1267;59173;-75
2023/01/05 11:38:36;;;;;;;9.00;5.60;;;;;;;9.10;73.15;100271.29;105419;1275;71593;-73
2023/01/05 11:41:10;;;;;;;8.90;4.80;;;;;;;9.19;70.73;100266.23;105340;1268;73477;-73
2023/01/05 11:43:39;;;;;;;10.50;6.10;;;;;;;9.27;69.79;100260.64;105377;1275;59583;-73
2023/01/05 11:46:08;;;;;;;7.00;4.50;;;;;;;9.28;69.52;100254.29;105245;1273;63250;-72
2023/01/05 11:48:38;;;;;;;7.80;4.50;;;;;;;9.32;69.16;100256.95;105310;1268;61210;-76
2023/01/05 11:51:06;;;;;;;7.70;4.50;;;;;;;9.38;67.99;100255.98;105158;1278;60754;-73
2023/01/05 11:53:39;;;;;;;9.20;5.00;;;;;;;9.44;67.48;100253.84;105342;1273;62900;-73
2023/01/05 11:56:21;;;;;;;11.00;5.10;;;;;;;9.44;67.59;100250.02;105718;1274;72130;-73
2023/01/05 11:58:53;;;;;;;9.80;5.10;;;;;;;9.43;67.81;100247.10;105889;1274;69900;-74
2023/01/05 12:02:08;;;;;;;7.80;5.00;;;;;;;9.42;68.24;100240.24;105855;1266;64284;-73
2023/01/05 12:05:09;;;;;;;12.50;6.10;;;;;;;9.45;68.00;100238.60;105655;1260;61278;-76
2023/01/05 12:07:48;;;;;;;11.20;6.20;;;;;;;9.43;68.03;100237.91;105853;1263;58012;-74
2023/01/05 12:10:25;;;;;;;9.90;6.20;;;;;;;9.43;68.73;100239.48;106040;1261;61965;-79
2023/01/05 12:13:39;;;;;;;11.90;6.50;;;;;;;9.47;69.31;100240.04;105920;1270;60844;-76
2023/01/05 12:16:36;;;;;;;12.50;7.60;;;;;;;9.53;68.54;100238.70;105523;1275;60617;-73
2023/01/05 12:19:19;;;;;;;13.80;6.80;;;;;;;9.50;67.76;100237.53;105432;1273;73104;-76
2023/01/05 12:22:12;;;;;;;;;;;;;;;9.48;68.80;100233.02;105726;1266;57917;-75
2023/01/05 12:24:47;;;;;;;12.60;6.90;;;;;;;9.48;68.69;100235.96;105670;1275;60252;-77
2023/01/05 12:28:16;;;;;;;10.90;6.70;;;;;;;9.48;68.10;100235.42;105612;1275;61223;-74